createdAt,value
2022-12-12T00:00:42.314Z,0.00
2022-12-12T00:01:41.338Z,0.00
2022-12-12T00:02:41.425Z,0.00
2022-12-12T00:03:41.355Z,0.00
2022-12-12T00:04:41.306Z,0.00
2022-12-12T00:05:41.295Z,0.00
2022-12-12T00:06:41.296Z,0.00
2022-12-12T00:07:41.284Z,0.00
2022-12-12T00:08:41.260Z,0.00
2022-12-12T00:09:41.260Z,0.00
2022-12-12T00:10:41.462Z,0.00
2022-12-12T00:11:41.227Z,0.00
2022-12-12T00:12:41.219Z,0.00
2022-12-12T00:13:41.254Z,0.00
2022-12-12T00:14:41.201Z,0.00
2022-12-12T00:15:41.423Z,0.00
2022-12-12T00:16:41.186Z,0.00
2022-12-12T00:17:41.177Z,0.00
2022-12-12T00:18:41.162Z,0.00
2022-12-12T00:19:41.152Z,0.00
2022-12-12T00:20:41.132Z,0.00
2022-12-12T00:21:41.152Z,0.00
2022-12-12T00:22:41.118Z,0.00
2022-12-12T00:23:41.114Z,0.00
2022-12-12T00:24:41.092Z,0.00
2022-12-12T00:25:41.084Z,0.00
2022-12-12T00:26:41.064Z,0.00
2022-12-12T00:27:41.087Z,0.00
2022-12-12T00:28:41.063Z,0.00
2022-12-12T00:29:41.052Z,0.00
2022-12-12T00:30:41.046Z,0.00
2022-12-12T00:31:41.042Z,0.00
2022-12-12T00:32:41.013Z,0.00
2022-12-12T00:33:41.016Z,0.00
2022-12-12T00:34:40.999Z,0.00
2022-12-12T00:35:41.006Z,0.00
2022-12-12T00:36:40.981Z,0.00
2022-12-12T00:37:41.378Z,0.00
2022-12-12T00:38:40.973Z,0.00
2022-12-12T00:39:40.952Z,0.00
2022-12-12T00:40:40.924Z,0.00
2022-12-12T00:41:40.919Z,0.00
2022-12-12T00:42:40.910Z,0.00
2022-12-12T00:43:40.909Z,0.00
2022-12-12T00:44:40.884Z,0.00
2022-12-12T00:45:40.909Z,0.00
2022-12-12T00:46:41.204Z,0.00
2022-12-12T00:47:40.868Z,0.00
2022-12-12T00:48:40.861Z,0.00
2022-12-12T00:49:40.846Z,0.00
2022-12-12T00:50:40.823Z,0.00
2022-12-12T00:51:40.824Z,0.00
2022-12-12T00:52:40.805Z,0.00
2022-12-12T00:53:40.803Z,0.00
2022-12-12T00:54:40.787Z,0.00
2022-12-12T00:55:40.806Z,0.00
2022-12-12T00:56:40.762Z,0.00
2022-12-12T00:57:40.766Z,0.00
2022-12-12T00:58:40.750Z,0.00
2022-12-12T00:59:40.755Z,0.00
2022-12-12T01:00:40.744Z,0.00
2022-12-12T01:01:40.730Z,0.00
2022-12-12T01:02:40.777Z,0.00
2022-12-12T01:03:40.703Z,0.00
2022-12-12T01:04:40.686Z,0.00
2022-12-12T01:05:40.684Z,0.00
2022-12-12T01:06:40.665Z,0.00
2022-12-12T01:07:40.667Z,0.00
2022-12-12T01:08:40.654Z,0.00
2022-12-12T01:09:40.633Z,0.00
2022-12-12T01:10:40.691Z,0.00
2022-12-12T01:11:40.641Z,0.00
2022-12-12T01:12:40.603Z,0.00
2022-12-12T01:13:40.613Z,0.00
2022-12-12T01:14:40.567Z,0.00
2022-12-12T01:15:40.685Z,0.00
2022-12-12T01:16:40.574Z,0.00
2022-12-12T01:17:40.597Z,0.00
2022-12-12T01:18:40.529Z,0.00
2022-12-12T01:19:40.540Z,0.00
2022-12-12T01:20:40.529Z,0.00
2022-12-12T01:21:40.515Z,0.00
2022-12-12T01:22:40.480Z,0.00
2022-12-12T01:23:40.516Z,0.00
2022-12-12T01:24:40.469Z,0.00
2022-12-12T01:25:40.466Z,0.00
2022-12-12T01:26:40.523Z,0.00
2022-12-12T01:27:40.477Z,0.00
2022-12-12T01:28:40.439Z,0.00
2022-12-12T01:29:40.436Z,0.00
2022-12-12T01:30:40.417Z,0.00
2022-12-12T01:31:40.448Z,0.00
2022-12-12T01:32:40.403Z,0.00
2022-12-12T01:33:40.401Z,0.00
2022-12-12T01:34:40.369Z,0.00
2022-12-12T01:35:40.366Z,0.00
2022-12-12T01:36:40.354Z,0.00
2022-12-12T01:37:40.357Z,0.00
2022-12-12T01:38:40.333Z,0.00
2022-12-12T01:39:40.338Z,0.00
2022-12-12T01:40:40.303Z,0.00
2022-12-12T01:41:40.323Z,0.00
2022-12-12T01:42:40.289Z,0.00
2022-12-12T01:43:40.302Z,0.00
2022-12-12T01:44:40.266Z,0.00
2022-12-12T01:45:40.280Z,0.00
2022-12-12T01:46:40.335Z,0.00
2022-12-12T01:47:40.242Z,0.00
2022-12-12T01:48:40.617Z,0.00
2022-12-12T01:49:40.227Z,0.00
2022-12-12T01:50:40.247Z,0.00
2022-12-12T01:51:40.221Z,0.00
2022-12-12T01:52:40.172Z,0.00
2022-12-12T01:53:40.190Z,0.00
2022-12-12T01:54:40.192Z,0.00
2022-12-12T01:55:40.187Z,0.00
2022-12-12T01:56:40.143Z,0.00
2022-12-12T01:57:40.143Z,0.00
2022-12-12T01:58:40.134Z,0.00
2022-12-12T01:59:40.124Z,0.00
2022-12-12T02:00:40.160Z,0.00
2022-12-12T02:01:40.173Z,0.00
2022-12-12T02:02:40.093Z,0.00
2022-12-12T02:03:40.097Z,0.00
2022-12-12T02:04:40.064Z,0.00
2022-12-12T02:05:40.059Z,0.00
2022-12-12T02:06:40.044Z,0.00
2022-12-12T02:07:40.052Z,0.00
2022-12-12T02:08:40.013Z,0.00
2022-12-12T02:09:40.031Z,0.00
2022-12-12T02:10:40.015Z,0.00
2022-12-12T02:11:40.003Z,0.00
2022-12-12T02:12:39.992Z,0.00
2022-12-12T02:13:39.984Z,0.00
2022-12-12T02:14:39.946Z,0.00
2022-12-12T02:15:39.951Z,0.00
2022-12-12T02:16:39.966Z,0.00
2022-12-12T02:17:39.947Z,0.00
2022-12-12T02:18:39.927Z,0.00
2022-12-12T02:19:39.982Z,0.00
2022-12-12T02:20:39.896Z,0.00
2022-12-12T02:21:39.888Z,0.00
2022-12-12T02:22:39.894Z,0.00
2022-12-12T02:23:39.871Z,0.00
2022-12-12T02:24:39.862Z,0.00
2022-12-12T02:25:39.879Z,0.00
2022-12-12T02:26:39.843Z,0.00
2022-12-12T02:27:39.872Z,0.00
2022-12-12T02:28:39.818Z,0.00
2022-12-12T02:29:39.819Z,0.00
2022-12-12T02:30:39.807Z,0.00
2022-12-12T02:31:39.836Z,0.00
2022-12-12T02:32:39.782Z,0.00
2022-12-12T02:33:48.301Z,0.00
2022-12-12T02:34:39.747Z,0.00
2022-12-12T02:35:39.747Z,0.00
2022-12-12T02:36:39.742Z,0.00
2022-12-12T02:37:39.726Z,0.00
2022-12-12T02:38:39.717Z,0.00
2022-12-12T02:39:39.736Z,0.00
2022-12-12T02:40:39.717Z,0.00
2022-12-12T02:41:39.694Z,0.00
2022-12-12T02:42:39.676Z,0.00
2022-12-12T02:43:39.657Z,0.00
2022-12-12T02:44:39.677Z,0.00
2022-12-12T02:45:39.638Z,0.00
2022-12-12T02:46:39.707Z,0.00
2022-12-12T02:47:39.660Z,0.00
2022-12-12T02:48:39.612Z,0.00
2022-12-12T02:49:39.602Z,0.00
2022-12-12T02:50:39.682Z,0.00
2022-12-12T02:51:39.598Z,0.00
2022-12-12T02:52:39.576Z,0.00
2022-12-12T02:53:39.582Z,0.00
2022-12-12T02:54:39.543Z,0.00
2022-12-12T02:55:39.565Z,0.00
2022-12-12T02:56:39.513Z,0.00
2022-12-12T02:57:39.527Z,0.00
2022-12-12T02:58:39.482Z,0.00
2022-12-12T02:59:39.497Z,0.00
2022-12-12T03:00:39.495Z,0.00
2022-12-12T03:01:39.533Z,0.00
2022-12-12T03:02:39.459Z,0.00
2022-12-12T03:03:39.442Z,0.00
2022-12-12T03:04:39.428Z,0.00
2022-12-12T03:05:39.430Z,0.00
2022-12-12T03:06:49.729Z,0.00
2022-12-12T03:07:39.423Z,0.00
2022-12-12T03:08:39.412Z,0.00
2022-12-12T03:09:39.416Z,0.00
2022-12-12T03:10:39.383Z,0.00
2022-12-12T03:11:39.372Z,0.00
2022-12-12T03:12:39.360Z,0.00
2022-12-12T03:13:39.348Z,0.00
2022-12-12T03:14:39.333Z,0.00
2022-12-12T03:15:39.351Z,0.00
2022-12-12T03:16:39.369Z,0.00
2022-12-12T03:17:39.357Z,0.00
2022-12-12T03:18:39.307Z,0.00
2022-12-12T03:19:39.300Z,0.00
2022-12-12T03:20:39.320Z,0.00
2022-12-12T03:21:39.416Z,0.00
2022-12-12T03:22:39.263Z,0.00
2022-12-12T03:23:39.277Z,0.00
2022-12-12T03:24:39.253Z,0.00
2022-12-12T03:25:39.223Z,0.00
2022-12-12T03:26:39.249Z,0.00
2022-12-12T03:27:39.231Z,0.00
2022-12-12T03:28:39.205Z,0.00
2022-12-12T03:29:39.188Z,0.00
2022-12-12T03:30:39.181Z,0.00
2022-12-12T03:31:39.179Z,0.00
2022-12-12T03:32:39.161Z,0.00
2022-12-12T03:33:39.178Z,0.00
2022-12-12T03:34:39.135Z,0.00
2022-12-12T03:35:39.147Z,0.00
2022-12-12T03:36:39.115Z,0.00
2022-12-12T03:37:39.122Z,0.00
2022-12-12T03:38:39.107Z,0.00
2022-12-12T03:39:39.118Z,0.00
2022-12-12T03:40:39.075Z,0.00
2022-12-12T03:41:39.084Z,0.00
2022-12-12T03:42:39.051Z,0.00
2022-12-12T03:43:39.064Z,0.00
2022-12-12T03:44:41.628Z,0.00
2022-12-12T03:45:39.046Z,0.00
2022-12-12T03:46:39.019Z,0.00
2022-12-12T03:47:39.025Z,0.00
2022-12-12T03:48:38.976Z,0.00
2022-12-12T03:49:39.036Z,0.00
2022-12-12T03:50:38.982Z,0.00
2022-12-12T03:51:38.993Z,0.00
2022-12-12T03:52:40.365Z,0.00
2022-12-12T03:53:38.954Z,0.00
2022-12-12T03:54:38.920Z,0.00
2022-12-12T03:55:38.921Z,0.00
2022-12-12T03:56:38.922Z,0.00
2022-12-12T03:57:38.905Z,0.00
2022-12-12T03:58:38.888Z,0.00
2022-12-12T03:59:38.904Z,0.00
2022-12-12T04:00:38.848Z,0.00
2022-12-12T04:01:38.876Z,0.00
2022-12-12T04:02:38.928Z,0.00
2022-12-12T04:03:38.836Z,0.00
2022-12-12T04:04:38.889Z,0.00
2022-12-12T04:05:38.905Z,0.00
2022-12-12T04:06:38.811Z,0.00
2022-12-12T04:07:38.960Z,0.00
2022-12-12T04:08:38.800Z,0.00
2022-12-12T04:09:38.821Z,0.00
2022-12-12T04:10:38.802Z,0.00
2022-12-12T04:11:38.784Z,0.00
2022-12-12T04:12:38.739Z,0.00
2022-12-12T04:13:38.781Z,0.00
2022-12-12T04:14:38.726Z,0.00
2022-12-12T04:15:38.717Z,0.00
2022-12-12T04:16:38.746Z,0.00
2022-12-12T04:17:38.707Z,0.00
2022-12-12T04:18:38.674Z,0.00
2022-12-12T04:19:38.730Z,0.00
2022-12-12T04:20:38.654Z,0.00
2022-12-12T04:21:38.643Z,0.00
2022-12-12T04:22:39.010Z,0.00
2022-12-12T04:23:38.638Z,0.00
2022-12-12T04:24:38.630Z,0.00
2022-12-12T04:25:38.601Z,0.00
2022-12-12T04:26:38.617Z,0.00
2022-12-12T04:27:38.593Z,0.00
2022-12-12T04:28:38.591Z,0.00
2022-12-12T04:29:38.565Z,0.00
2022-12-12T04:30:38.563Z,0.00
2022-12-12T04:31:38.591Z,0.00
2022-12-12T04:32:38.563Z,0.00
2022-12-12T04:33:38.527Z,0.00
2022-12-12T04:34:38.515Z,0.00
2022-12-12T04:35:38.638Z,0.00
2022-12-12T04:36:38.526Z,0.00
2022-12-12T04:37:38.493Z,0.00
2022-12-12T04:38:38.505Z,0.00
2022-12-12T04:39:38.456Z,0.00
2022-12-12T04:40:38.462Z,0.00
2022-12-12T04:41:38.466Z,0.00
2022-12-12T04:42:38.446Z,0.00
2022-12-12T04:43:38.422Z,0.00
2022-12-12T04:44:38.427Z,0.00
2022-12-12T04:45:38.469Z,0.00
2022-12-12T04:46:38.414Z,0.00
2022-12-12T04:47:38.525Z,0.00
2022-12-12T04:48:40.138Z,0.00
2022-12-12T04:49:38.379Z,0.00
2022-12-12T04:50:38.378Z,0.00
2022-12-12T04:51:38.344Z,0.00
2022-12-12T04:52:38.327Z,0.00
2022-12-12T04:53:38.523Z,0.00
2022-12-12T04:54:38.313Z,0.00
2022-12-12T04:55:38.325Z,0.00
2022-12-12T04:56:38.332Z,0.00
2022-12-12T04:57:38.301Z,0.00
2022-12-12T04:58:38.267Z,0.00
2022-12-12T04:59:38.294Z,0.00
2022-12-12T05:00:38.253Z,0.00
2022-12-12T05:01:38.285Z,0.00
2022-12-12T05:02:38.279Z,0.00
2022-12-12T05:03:38.231Z,0.00
2022-12-12T05:04:38.219Z,0.00
2022-12-12T05:05:38.191Z,0.00
2022-12-12T05:06:38.195Z,0.00
2022-12-12T05:07:40.250Z,0.00
2022-12-12T05:08:38.161Z,0.00
2022-12-12T05:09:38.165Z,0.00
2022-12-12T05:10:38.163Z,0.00
2022-12-12T05:11:38.163Z,0.00
2022-12-12T05:12:38.128Z,0.00
2022-12-12T05:13:38.123Z,0.00
2022-12-12T05:14:38.108Z,0.00
2022-12-12T05:15:43.306Z,0.00
2022-12-12T05:16:39.192Z,0.00
2022-12-12T05:17:38.103Z,0.00
2022-12-12T05:18:38.841Z,0.00
2022-12-12T05:19:38.075Z,0.00
2022-12-12T05:20:38.177Z,0.00
2022-12-12T05:21:38.026Z,0.00
2022-12-12T05:22:38.036Z,0.00
2022-12-12T05:23:38.016Z,0.00
2022-12-12T05:24:38.057Z,0.00
2022-12-12T05:25:37.986Z,0.00
2022-12-12T05:26:37.993Z,0.00
2022-12-12T05:27:37.989Z,0.00
2022-12-12T05:28:37.986Z,0.00
2022-12-12T05:29:37.974Z,0.00
2022-12-12T05:30:38.008Z,0.00
2022-12-12T05:31:37.916Z,0.00
2022-12-12T05:32:37.929Z,0.00
2022-12-12T05:33:37.909Z,0.00
2022-12-12T05:34:37.918Z,0.00
2022-12-12T05:35:37.891Z,0.00
2022-12-12T05:36:37.905Z,0.00
2022-12-12T05:37:37.887Z,0.00
2022-12-12T05:38:37.858Z,0.00
2022-12-12T05:39:37.841Z,0.00
2022-12-12T05:40:37.840Z,0.00
2022-12-12T05:41:38.211Z,0.00
2022-12-12T05:42:37.871Z,0.00
2022-12-12T05:43:38.103Z,0.00
2022-12-12T05:44:37.803Z,0.00
2022-12-12T05:45:37.796Z,0.00
2022-12-12T05:46:37.790Z,0.00
2022-12-12T05:47:37.771Z,0.00
2022-12-12T05:48:37.768Z,0.00
2022-12-12T05:49:37.777Z,0.00
2022-12-12T05:50:38.445Z,0.00
2022-12-12T05:51:38.361Z,0.00
2022-12-12T05:52:37.724Z,0.00
2022-12-12T05:53:42.817Z,0.00
2022-12-12T05:54:38.778Z,0.00
2022-12-12T05:55:37.743Z,0.00
2022-12-12T05:56:37.718Z,0.00
2022-12-12T05:57:37.661Z,0.00
2022-12-12T05:58:37.664Z,0.00
2022-12-12T05:59:37.644Z,0.00
2022-12-12T06:00:37.661Z,0.00
2022-12-12T06:01:37.623Z,0.00
2022-12-12T06:02:37.710Z,0.00
2022-12-12T06:03:37.686Z,0.00
2022-12-12T06:04:37.602Z,0.00
2022-12-12T06:05:37.583Z,0.00
2022-12-12T06:06:37.583Z,0.00
2022-12-12T06:07:37.568Z,0.00
2022-12-12T06:08:37.627Z,0.00
2022-12-12T06:09:37.548Z,0.00
2022-12-12T06:10:37.533Z,0.00
2022-12-12T06:11:37.548Z,0.00
2022-12-12T06:12:37.545Z,0.00
2022-12-12T06:13:37.548Z,0.00
2022-12-12T06:14:37.497Z,0.00
2022-12-12T06:15:37.520Z,0.00
2022-12-12T06:16:37.497Z,0.00
2022-12-12T06:17:37.460Z,0.00
2022-12-12T06:18:37.477Z,0.00
2022-12-12T06:19:37.471Z,0.00
2022-12-12T06:20:37.462Z,0.00
2022-12-12T06:21:37.416Z,0.00
2022-12-12T06:22:37.413Z,0.00
2022-12-12T06:23:37.395Z,0.00
2022-12-12T06:24:37.400Z,0.00
2022-12-12T06:25:37.513Z,0.00
2022-12-12T06:26:37.387Z,0.00
2022-12-12T06:27:37.356Z,0.00
2022-12-12T06:28:37.387Z,0.00
2022-12-12T06:29:37.357Z,0.00
2022-12-12T06:30:37.342Z,0.00
2022-12-12T06:31:37.410Z,0.00
2022-12-12T06:32:37.307Z,0.00
2022-12-12T06:33:37.310Z,0.00
2022-12-12T06:34:37.293Z,0.00
2022-12-12T06:35:37.281Z,0.00
2022-12-12T06:36:37.287Z,0.00
2022-12-12T06:37:37.370Z,0.00
2022-12-12T06:38:37.267Z,0.00
2022-12-12T06:39:37.233Z,0.00
2022-12-12T06:40:37.242Z,0.00
2022-12-12T06:41:37.237Z,0.00
2022-12-12T06:42:37.215Z,0.00
2022-12-12T06:43:37.215Z,0.00
2022-12-12T06:44:37.202Z,0.00
2022-12-12T06:45:37.183Z,0.00
2022-12-12T06:46:37.220Z,0.00
2022-12-12T06:47:37.168Z,0.00
2022-12-12T06:48:37.159Z,0.00
2022-12-12T06:49:37.123Z,0.00
2022-12-12T06:50:37.164Z,0.00
2022-12-12T06:51:37.122Z,0.00
2022-12-12T06:52:37.115Z,0.00
2022-12-12T06:53:37.091Z,0.00
2022-12-12T06:54:37.089Z,0.00
2022-12-12T06:55:37.071Z,0.00
2022-12-12T06:56:37.151Z,0.00
2022-12-12T06:57:37.146Z,0.00
2022-12-12T06:58:37.062Z,0.00
2022-12-12T06:59:37.048Z,0.00
2022-12-12T07:00:37.040Z,0.00
2022-12-12T07:01:37.025Z,0.00
2022-12-12T07:02:37.104Z,0.00
2022-12-12T07:03:37.023Z,0.00
2022-12-12T07:04:37.106Z,0.00
2022-12-12T07:05:36.978Z,0.00
2022-12-12T07:06:36.969Z,0.00
2022-12-12T07:07:36.983Z,0.00
2022-12-12T07:08:36.948Z,0.00
2022-12-12T07:09:36.951Z,0.00
2022-12-12T07:10:36.945Z,0.00
2022-12-12T07:11:36.907Z,0.00
2022-12-12T07:12:36.914Z,0.00
2022-12-12T07:13:36.895Z,0.00
2022-12-12T07:14:36.912Z,0.00
2022-12-12T07:15:36.959Z,5.62
2022-12-12T07:16:36.876Z,5.62
2022-12-12T07:17:36.876Z,5.62
2022-12-12T07:18:36.857Z,5.62
2022-12-12T07:19:36.824Z,5.62
2022-12-12T07:20:36.862Z,5.62
2022-12-12T07:21:36.836Z,5.62
2022-12-12T07:22:36.818Z,5.62
2022-12-12T07:23:36.788Z,5.62
2022-12-12T07:24:36.817Z,11.25
2022-12-12T07:25:36.774Z,11.25
2022-12-12T07:26:36.772Z,11.25
2022-12-12T07:27:36.908Z,11.25
2022-12-12T07:28:36.798Z,11.25
2022-12-12T07:29:36.751Z,16.88
2022-12-12T07:30:36.720Z,16.88
2022-12-12T07:31:36.763Z,16.88
2022-12-12T07:32:36.720Z,16.88
2022-12-12T07:33:43.769Z,22.50
2022-12-12T07:34:38.322Z,22.50
2022-12-12T07:35:36.671Z,22.50
2022-12-12T07:36:37.622Z,22.50
2022-12-12T07:37:36.667Z,28.12
2022-12-12T07:38:36.634Z,28.12
2022-12-12T07:39:36.663Z,33.75
2022-12-12T07:40:36.659Z,33.75
2022-12-12T07:41:36.592Z,33.75
2022-12-12T07:42:36.634Z,39.38
2022-12-12T07:43:41.469Z,39.38
2022-12-12T07:44:37.592Z,45.00
2022-12-12T07:45:36.629Z,45.00
2022-12-12T07:46:36.820Z,50.62
2022-12-12T07:47:36.564Z,50.62
2022-12-12T07:48:36.574Z,50.62
2022-12-12T07:49:36.513Z,56.25
2022-12-12T07:50:36.564Z,56.25
2022-12-12T07:51:36.508Z,56.25
2022-12-12T07:52:36.776Z,61.88
2022-12-12T07:53:36.471Z,61.88
2022-12-12T07:54:36.505Z,61.88
2022-12-12T07:55:36.482Z,67.50
2022-12-12T07:56:36.463Z,67.50
2022-12-12T07:57:36.447Z,67.50
2022-12-12T07:58:36.530Z,67.50
2022-12-12T07:59:36.421Z,67.50
2022-12-12T08:00:36.416Z,73.12
2022-12-12T08:01:36.467Z,73.12
2022-12-12T08:02:37.380Z,78.75
2022-12-12T08:03:37.328Z,78.75
2022-12-12T08:04:36.495Z,84.38
2022-12-12T08:05:36.381Z,84.38
2022-12-12T08:06:36.369Z,84.38
2022-12-12T08:07:36.343Z,90.00
2022-12-12T08:08:36.337Z,90.00
2022-12-12T08:09:36.334Z,95.62
2022-12-12T08:10:36.325Z,95.62
2022-12-12T08:11:36.311Z,95.62
2022-12-12T08:12:36.301Z,101.25
2022-12-12T08:13:36.406Z,101.25
2022-12-12T08:14:36.280Z,106.88
2022-12-12T08:15:36.252Z,106.88
2022-12-12T08:16:36.288Z,112.50
2022-12-12T08:17:36.246Z,118.12
2022-12-12T08:18:36.268Z,118.12
2022-12-12T08:19:36.213Z,123.75
2022-12-12T08:20:36.207Z,123.75
2022-12-12T08:21:36.194Z,123.75
2022-12-12T08:22:36.212Z,129.38
2022-12-12T08:23:36.183Z,129.38
2022-12-12T08:24:36.179Z,135.00
2022-12-12T08:25:36.155Z,135.00
2022-12-12T08:26:36.163Z,140.62
2022-12-12T08:27:36.148Z,146.25
2022-12-12T08:28:36.159Z,146.25
2022-12-12T08:29:36.218Z,146.25
2022-12-12T08:30:36.119Z,151.88
2022-12-12T08:31:36.196Z,151.88
2022-12-12T08:32:36.122Z,151.88
2022-12-12T08:33:36.083Z,157.50
2022-12-12T08:34:43.622Z,157.50
2022-12-12T08:35:36.058Z,163.12
2022-12-12T08:36:36.059Z,163.12
2022-12-12T08:37:36.045Z,168.75
2022-12-12T08:38:36.027Z,168.75
2022-12-12T08:39:36.017Z,174.38
2022-12-12T08:40:36.001Z,174.38
2022-12-12T08:41:36.000Z,180.00
2022-12-12T08:42:35.986Z,185.62
2022-12-12T08:43:35.986Z,185.62
2022-12-12T08:44:35.946Z,191.25
2022-12-12T08:45:35.960Z,196.88
2022-12-12T08:46:35.998Z,196.88
2022-12-12T08:47:35.930Z,202.50
2022-12-12T08:48:35.958Z,202.50
2022-12-12T08:49:35.922Z,208.12
2022-12-12T08:50:35.936Z,208.12
2022-12-12T08:51:35.896Z,213.75
2022-12-12T08:52:35.886Z,208.12
2022-12-12T08:53:35.918Z,196.88
2022-12-12T08:54:36.099Z,196.88
2022-12-12T08:55:35.848Z,196.88
2022-12-12T08:56:35.842Z,191.25
2022-12-12T08:57:35.849Z,196.88
2022-12-12T08:58:35.824Z,208.12
2022-12-12T08:59:35.832Z,219.38
2022-12-12T09:00:36.067Z,225.00
2022-12-12T09:01:35.910Z,236.25
2022-12-12T09:02:35.984Z,225.00
2022-12-12T09:03:35.772Z,225.00
2022-12-12T09:04:35.771Z,225.00
2022-12-12T09:05:35.756Z,230.62
2022-12-12T09:06:35.741Z,236.25
2022-12-12T09:07:35.764Z,247.50
2022-12-12T09:08:35.728Z,275.62
2022-12-12T09:09:35.716Z,270.00
2022-12-12T09:10:35.691Z,275.62
2022-12-12T09:11:35.715Z,286.88
2022-12-12T09:12:41.287Z,292.50
2022-12-12T09:13:36.703Z,292.50
2022-12-12T09:14:35.657Z,303.75
2022-12-12T09:15:35.643Z,309.38
2022-12-12T09:16:35.681Z,320.62
2022-12-12T09:17:35.660Z,326.25
2022-12-12T09:18:35.634Z,326.25
2022-12-12T09:19:35.603Z,331.88
2022-12-12T09:20:35.587Z,331.88
2022-12-12T09:21:35.614Z,331.88
2022-12-12T09:22:35.553Z,331.88
2022-12-12T09:23:35.592Z,326.25
2022-12-12T09:24:35.552Z,326.25
2022-12-12T09:25:38.848Z,315.00
2022-12-12T09:26:36.538Z,292.50
2022-12-12T09:27:35.543Z,292.50
2022-12-12T09:28:35.528Z,292.50
2022-12-12T09:29:35.501Z,320.62
2022-12-12T09:30:35.600Z,309.38
2022-12-12T09:31:35.802Z,292.50
2022-12-12T09:32:35.466Z,298.12
2022-12-12T09:33:35.470Z,337.50
2022-12-12T09:34:35.462Z,320.62
2022-12-12T09:35:35.452Z,315.00
2022-12-12T09:36:35.424Z,315.00
2022-12-12T09:37:35.409Z,303.75
2022-12-12T09:38:35.394Z,303.75
2022-12-12T09:39:35.412Z,309.38
2022-12-12T09:40:35.387Z,320.62
2022-12-12T09:41:35.417Z,326.25
2022-12-12T09:42:35.355Z,326.25
2022-12-12T09:43:35.346Z,309.38
2022-12-12T09:44:35.327Z,303.75
2022-12-12T09:45:35.356Z,281.25
2022-12-12T09:46:35.317Z,270.00
2022-12-12T09:47:35.352Z,270.00
2022-12-12T09:48:35.304Z,270.00
2022-12-12T09:49:41.553Z,270.00
2022-12-12T09:50:36.272Z,275.62
2022-12-12T09:51:35.265Z,286.88
2022-12-12T09:52:35.259Z,298.12
2022-12-12T09:53:35.276Z,326.25
2022-12-12T09:54:35.241Z,315.00
2022-12-12T09:55:35.239Z,320.62
2022-12-12T09:56:35.209Z,326.25
2022-12-12T09:57:35.207Z,303.75
2022-12-12T09:58:35.213Z,303.75
2022-12-12T09:59:35.177Z,309.38
2022-12-12T10:00:35.207Z,337.50
2022-12-12T10:01:35.184Z,489.38
2022-12-12T10:02:35.387Z,371.25
2022-12-12T10:03:35.159Z,337.50
2022-12-12T10:04:35.117Z,405.00
2022-12-12T10:05:35.133Z,360.00
2022-12-12T10:06:37.458Z,309.38
2022-12-12T10:07:35.106Z,354.38
2022-12-12T10:08:35.123Z,303.75
2022-12-12T10:09:35.074Z,303.75
2022-12-12T10:10:35.054Z,292.50
2022-12-12T10:11:35.055Z,298.12
2022-12-12T10:12:35.064Z,298.12
2022-12-12T10:13:35.062Z,309.38
2022-12-12T10:14:34.997Z,365.62
2022-12-12T10:15:35.022Z,320.62
2022-12-12T10:16:35.065Z,309.38
2022-12-12T10:17:34.985Z,309.38
2022-12-12T10:18:34.987Z,309.38
2022-12-12T10:19:34.981Z,309.38
2022-12-12T10:20:34.948Z,320.62
2022-12-12T10:21:34.959Z,382.50
2022-12-12T10:22:34.927Z,382.50
2022-12-12T10:23:34.946Z,354.38
2022-12-12T10:24:34.901Z,360.00
2022-12-12T10:25:34.919Z,348.75
2022-12-12T10:26:34.900Z,343.12
2022-12-12T10:27:34.902Z,343.12
2022-12-12T10:28:34.886Z,337.50
2022-12-12T10:29:39.727Z,331.88
2022-12-12T10:30:35.844Z,315.00
2022-12-12T10:31:34.885Z,309.38
2022-12-12T10:32:34.839Z,292.50
2022-12-12T10:33:34.837Z,286.88
2022-12-12T10:34:34.804Z,286.88
2022-12-12T10:35:34.807Z,286.88
2022-12-12T10:36:34.804Z,281.25
2022-12-12T10:37:34.803Z,275.62
2022-12-12T10:38:34.764Z,270.00
2022-12-12T10:39:34.748Z,253.12
2022-12-12T10:40:34.740Z,236.25
2022-12-12T10:41:34.745Z,230.62
2022-12-12T10:42:34.744Z,219.38
2022-12-12T10:43:34.760Z,213.75
2022-12-12T10:44:34.751Z,213.75
2022-12-12T10:45:34.764Z,219.38
2022-12-12T10:46:34.750Z,219.38
2022-12-12T10:47:34.706Z,225.00
2022-12-12T10:48:34.660Z,230.62
2022-12-12T10:49:34.678Z,230.62
2022-12-12T10:50:34.636Z,230.62
2022-12-12T10:51:34.641Z,225.00
2022-12-12T10:52:34.602Z,225.00
2022-12-12T10:53:34.617Z,225.00
2022-12-12T10:54:34.641Z,230.62
2022-12-12T10:55:34.588Z,230.62
2022-12-12T10:56:34.589Z,236.25
2022-12-12T10:57:34.573Z,247.50
2022-12-12T10:58:34.562Z,253.12
2022-12-12T10:59:34.578Z,270.00
2022-12-12T11:00:34.531Z,292.50
2022-12-12T11:02:35.713Z,320.62
2022-12-12T11:03:34.557Z,331.88
2022-12-12T11:04:34.486Z,337.50
2022-12-12T11:05:34.513Z,337.50
2022-12-12T11:06:34.768Z,343.12
2022-12-12T11:07:34.504Z,348.75
2022-12-12T11:08:34.524Z,360.00
2022-12-12T11:09:34.456Z,371.25
2022-12-12T11:10:34.911Z,376.88
2022-12-12T11:11:34.550Z,376.88
2022-12-12T11:12:34.646Z,376.88
2022-12-12T11:13:34.387Z,371.25
2022-12-12T11:14:34.382Z,365.62
2022-12-12T11:15:34.383Z,365.62
2022-12-12T11:16:34.392Z,348.75
2022-12-12T11:17:34.353Z,348.75
2022-12-12T11:18:34.332Z,348.75
2022-12-12T11:19:34.334Z,354.38
2022-12-12T11:20:34.329Z,371.25
2022-12-12T11:21:34.319Z,438.75
2022-12-12T11:22:34.289Z,393.75
2022-12-12T11:23:34.292Z,427.50
2022-12-12T11:24:34.268Z,495.00
2022-12-12T11:25:34.270Z,607.50
2022-12-12T11:26:34.277Z,517.50
2022-12-12T11:27:34.269Z,511.88
2022-12-12T11:28:34.225Z,489.38
2022-12-12T11:29:34.226Z,523.12
2022-12-12T11:30:34.183Z,461.25
2022-12-12T11:31:34.297Z,427.50
2022-12-12T11:32:34.185Z,472.50
2022-12-12T11:33:34.226Z,393.75
2022-12-12T11:34:34.209Z,371.25
2022-12-12T11:35:34.179Z,354.38
2022-12-12T11:36:34.169Z,348.75
2022-12-12T11:37:34.141Z,337.50
2022-12-12T11:38:34.130Z,326.25
2022-12-12T11:39:34.132Z,320.62
2022-12-12T11:40:34.099Z,320.62
2022-12-12T11:41:34.093Z,315.00
2022-12-12T11:42:34.214Z,315.00
2022-12-12T11:43:34.112Z,309.38
2022-12-12T11:44:34.063Z,303.75
2022-12-12T11:45:34.134Z,298.12
2022-12-12T11:46:34.045Z,286.88
2022-12-12T11:47:34.037Z,281.25
2022-12-12T11:48:34.032Z,275.62
2022-12-12T11:49:34.153Z,270.00
2022-12-12T11:50:33.998Z,270.00
2022-12-12T11:51:34.024Z,264.38
2022-12-12T11:52:34.018Z,264.38
2022-12-12T11:53:33.981Z,281.25
2022-12-12T11:54:33.955Z,264.38
2022-12-12T11:55:33.958Z,264.38
2022-12-12T11:56:33.957Z,264.38
2022-12-12T11:57:33.945Z,258.75
2022-12-12T11:58:33.910Z,258.75
2022-12-12T11:59:33.926Z,258.75
2022-12-12T12:00:33.888Z,258.75
2022-12-12T12:01:33.911Z,253.12
2022-12-12T12:02:33.924Z,253.12
2022-12-12T12:03:33.938Z,258.75
2022-12-12T12:04:34.729Z,258.75
2022-12-12T12:05:33.843Z,258.75
2022-12-12T12:06:34.005Z,264.38
2022-12-12T12:07:34.008Z,270.00
2022-12-12T12:08:33.991Z,264.38
2022-12-12T12:09:33.805Z,258.75
2022-12-12T12:10:33.786Z,253.12
2022-12-12T12:11:33.787Z,270.00
2022-12-12T12:12:33.766Z,236.25
2022-12-12T12:13:33.775Z,208.12
2022-12-12T12:14:33.843Z,191.25
2022-12-12T12:15:33.751Z,180.00
2022-12-12T12:16:33.733Z,174.38
2022-12-12T12:17:33.757Z,163.12
2022-12-12T12:18:33.728Z,163.12
2022-12-12T12:19:33.733Z,163.12
2022-12-12T12:20:33.686Z,157.50
2022-12-12T12:21:33.692Z,157.50
2022-12-12T12:22:33.646Z,157.50
2022-12-12T12:23:39.167Z,157.50
2022-12-12T12:24:34.643Z,157.50
2022-12-12T12:25:33.635Z,157.50
2022-12-12T12:26:33.746Z,157.50
2022-12-12T12:27:33.616Z,157.50
2022-12-12T12:28:33.610Z,151.88
2022-12-12T12:29:33.617Z,151.88
2022-12-12T12:30:33.629Z,151.88
2022-12-12T12:31:33.641Z,146.25
2022-12-12T12:32:33.554Z,146.25
2022-12-12T12:33:33.547Z,146.25
2022-12-12T12:34:33.521Z,146.25
2022-12-12T12:35:33.667Z,146.25
2022-12-12T12:36:33.506Z,146.25
2022-12-12T12:37:33.510Z,146.25
2022-12-12T12:38:33.506Z,151.88
2022-12-12T12:39:33.498Z,157.50
2022-12-12T12:40:33.474Z,157.50
2022-12-12T12:41:33.484Z,163.12
2022-12-12T12:42:33.425Z,163.12
2022-12-12T12:43:33.448Z,163.12
2022-12-12T12:44:33.454Z,168.75
2022-12-12T12:45:33.406Z,174.38
2022-12-12T12:46:33.443Z,174.38
2022-12-12T12:47:33.423Z,174.38
2022-12-12T12:48:33.390Z,174.38
2022-12-12T12:49:33.382Z,180.00
2022-12-12T12:50:33.359Z,180.00
2022-12-12T12:51:33.351Z,174.38
2022-12-12T12:52:33.359Z,174.38
2022-12-12T12:53:33.365Z,174.38
2022-12-12T12:54:33.331Z,174.38
2022-12-12T12:55:33.417Z,180.00
2022-12-12T12:56:33.632Z,185.62
2022-12-12T12:57:33.286Z,191.25
2022-12-12T12:58:33.275Z,191.25